createdAt,value
2017-12-23T00:00:02.674Z,5.35
2017-12-23T00:00:06.814Z,5.34
2017-12-23T00:00:11.159Z,5.34
2017-12-23T00:00:15.396Z,5.34
2017-12-23T00:00:19.649Z,5.35
2017-12-23T00:00:23.766Z,5.34
2017-12-23T00:00:28.124Z,5.34
2017-12-23T00:00:32.151Z,5.34
2017-12-23T00:00:36.298Z,5.35
2017-12-23T00:00:40.317Z,5.34
2017-12-23T00:00:44.329Z,5.35
2017-12-23T00:00:48.546Z,5.34
2017-12-23T00:00:52.663Z,5.33
2017-12-23T00:00:56.774Z,5.34
2017-12-23T00:01:01.003Z,5.34
2017-12-23T00:01:05.382Z,5.34
2017-12-23T00:01:09.630Z,5.35
2017-12-23T00:01:13.745Z,5.34
2017-12-23T00:01:17.975Z,5.34
2017-12-23T00:01:22.154Z,5.34
2017-12-23T00:01:26.267Z,5.34
2017-12-23T00:01:30.293Z,5.35
2017-12-23T00:01:34.434Z,5.34
2017-12-23T00:01:38.689Z,5.34
2017-12-23T00:01:43.026Z,5.34
2017-12-23T00:01:47.249Z,5.34
2017-12-23T00:01:51.379Z,5.35
2017-12-23T00:01:55.612Z,5.35
2017-12-23T00:01:59.749Z,5.34
2017-12-23T00:02:04.086Z,5.35
2017-12-23T00:02:08.004Z,5.34
2017-12-23T00:02:12.020Z,5.35
2017-12-23T00:02:16.095Z,5.34
2017-12-23T00:02:20.443Z,5.35
2017-12-23T00:02:24.789Z,5.35
2017-12-23T00:02:28.927Z,5.33
2017-12-23T00:02:33.267Z,5.35
2017-12-23T00:02:37.496Z,5.35
2017-12-23T00:02:41.743Z,5.35
2017-12-23T00:02:46.021Z,5.35
2017-12-23T00:02:50.038Z,5.35
2017-12-23T00:02:54.179Z,5.35
2017-12-23T00:02:58.419Z,5.35
2017-12-23T00:03:02.752Z,5.35
2017-12-23T00:03:07.004Z,5.35
2017-12-23T00:03:11.133Z,5.35
2017-12-23T00:03:15.374Z,5.36
2017-12-23T00:03:19.635Z,5.36
2017-12-23T00:03:23.760Z,5.35
2017-12-23T00:03:28.104Z,5.36
2017-12-23T00:03:32.144Z,5.36
2017-12-23T00:03:36.386Z,5.35
2017-12-23T00:03:40.602Z,5.36
2017-12-23T00:03:44.831Z,5.35
2017-12-23T00:03:48.856Z,5.36
2017-12-23T00:03:52.976Z,5.36
2017-12-23T00:03:57.088Z,5.36
2017-12-23T00:04:01.275Z,5.36
2017-12-23T00:04:05.869Z,5.36
2017-12-23T00:04:10.087Z,5.36
2017-12-23T00:04:14.206Z,5.37
2017-12-23T00:04:18.441Z,5.36
2017-12-23T00:04:22.670Z,5.36
2017-12-23T00:04:26.743Z,5.37
2017-12-23T00:04:30.768Z,5.37
2017-12-23T00:04:34.894Z,5.37
2017-12-23T00:04:39.019Z,5.37
2017-12-23T00:04:43.020Z,5.37
2017-12-23T00:04:47.053Z,5.37
2017-12-23T00:04:51.294Z,5.38
2017-12-23T00:04:55.405Z,5.37
2017-12-23T00:04:59.670Z,5.38
2017-12-23T00:05:03.977Z,5.38
2017-12-23T00:05:08.214Z,5.38
2017-12-23T00:05:12.348Z,5.37
2017-12-23T00:05:16.358Z,5.38
2017-12-23T00:05:20.588Z,5.38
2017-12-23T00:05:24.726Z,5.38
2017-12-23T00:05:28.741Z,5.38
2017-12-23T00:05:32.884Z,5.38
2017-12-23T00:05:37.251Z,5.38
2017-12-23T00:05:41.276Z,5.39
2017-12-23T00:05:45.289Z,5.39
2017-12-23T00:05:49.624Z,5.39
2017-12-23T00:05:53.862Z,5.39
2017-12-23T00:05:57.763Z,5.39
2017-12-23T00:06:02.000Z,5.4
2017-12-23T00:06:06.227Z,5.4
2017-12-23T00:06:10.559Z,5.4
2017-12-23T00:06:14.790Z,5.4
2017-12-23T00:06:18.950Z,5.41
2017-12-23T00:06:23.189Z,5.4
2017-12-23T00:06:27.330Z,5.41
2017-12-23T00:06:31.562Z,5.4
2017-12-23T00:06:35.691Z,5.4
2017-12-23T00:06:39.939Z,5.4
2017-12-23T00:06:44.067Z,5.41
2017-12-23T00:06:48.312Z,5.4
2017-12-23T00:06:52.221Z,5.41
2017-12-23T00:06:56.136Z,5.42
2017-12-23T00:06:59.943Z,5.41
2017-12-23T00:07:04.193Z,5.4
2017-12-23T00:07:08.420Z,5.42
2017-12-23T00:07:12.682Z,5.41
2017-12-23T00:07:16.795Z,5.41
2017-12-23T00:07:21.030Z,5.41
2017-12-23T00:07:25.365Z,5.42
2017-12-23T00:07:29.393Z,5.42
2017-12-23T00:07:33.630Z,5.42
2017-12-23T00:07:37.655Z,5.42
2017-12-23T00:07:41.888Z,5.42
2017-12-23T00:07:46.027Z,5.42
2017-12-23T00:07:50.047Z,5.42
2017-12-23T00:07:54.272Z,5.43
2017-12-23T00:07:58.299Z,5.43
2017-12-23T00:08:02.548Z,5.43
2017-12-23T00:08:06.799Z,5.44
2017-12-23T00:08:10.924Z,5.42
2017-12-23T00:08:15.058Z,5.43
2017-12-23T00:08:19.101Z,5.43
2017-12-23T00:08:23.240Z,5.44
2017-12-23T00:08:27.377Z,5.44
2017-12-23T00:08:31.634Z,5.44
2017-12-23T00:08:35.655Z,5.44
2017-12-23T00:08:39.894Z,5.43
2017-12-23T00:08:43.904Z,5.44
2017-12-23T00:08:47.986Z,5.43
2017-12-23T00:08:52.219Z,5.44
2017-12-23T00:08:56.352Z,5.43
2017-12-23T00:09:00.526Z,5.43
2017-12-23T00:09:04.539Z,5.44
2017-12-23T00:09:08.551Z,5.43
2017-12-23T00:09:12.561Z,5.44
2017-12-23T00:09:16.900Z,5.43
2017-12-23T00:09:21.126Z,5.44
2017-12-23T00:09:25.359Z,5.44
2017-12-23T00:09:29.716Z,5.43
2017-12-23T00:09:33.949Z,5.44
2017-12-23T00:09:38.074Z,5.43
2017-12-23T00:09:42.306Z,5.44
2017-12-23T00:09:46.423Z,5.43
2017-12-23T00:09:50.750Z,5.44
2017-12-23T00:09:54.996Z,5.45
2017-12-23T00:09:59.212Z,5.44
2017-12-23T00:10:03.453Z,5.45
2017-12-23T00:10:07.357Z,5.44
2017-12-23T00:10:11.496Z,5.45
2017-12-23T00:10:15.643Z,5.44
2017-12-23T00:10:19.769Z,5.44
2017-12-23T00:10:24.120Z,5.44
2017-12-23T00:10:28.443Z,5.45
2017-12-23T00:10:32.695Z,5.44
2017-12-23T00:10:36.928Z,5.45
2017-12-23T00:10:41.157Z,5.44
2017-12-23T00:10:45.307Z,5.44
2017-12-23T00:10:49.431Z,5.45
2017-12-23T00:10:53.546Z,5.46
2017-12-23T00:10:57.455Z,5.46
2017-12-23T00:11:01.378Z,5.45
2017-12-23T00:11:05.548Z,5.45
2017-12-23T00:11:09.882Z,5.46
2017-12-23T00:11:14.133Z,5.45
2017-12-23T00:11:18.360Z,5.46
2017-12-23T00:11:22.542Z,5.46
2017-12-23T00:11:26.659Z,5.46
2017-12-23T00:11:30.687Z,5.46
2017-12-23T00:11:34.716Z,5.46
2017-12-23T00:11:38.956Z,5.45
2017-12-23T00:11:43.292Z,5.46
2017-12-23T00:11:47.313Z,5.46
2017-12-23T00:11:51.127Z,5.46
2017-12-23T00:11:55.363Z,5.46
2017-12-23T00:11:59.375Z,5.47
2017-12-23T00:12:03.612Z,5.47
2017-12-23T00:12:07.647Z,5.47
2017-12-23T00:12:11.551Z,5.47
2017-12-23T00:12:15.561Z,5.47
2017-12-23T00:12:19.570Z,5.48
2017-12-23T00:12:23.919Z,5.47
2017-12-23T00:12:28.146Z,5.47
2017-12-23T00:12:32.273Z,5.47
2017-12-23T00:12:36.500Z,5.48
2017-12-23T00:12:40.838Z,5.47
2017-12-23T00:12:44.949Z,5.47
2017-12-23T00:12:49.017Z,5.48
2017-12-23T00:12:53.042Z,5.47
2017-12-23T00:12:57.053Z,5.47
2017-12-23T00:13:01.188Z,5.47
2017-12-23T00:13:05.415Z,5.48
2017-12-23T00:13:09.542Z,5.48
2017-12-23T00:13:13.786Z,5.48
2017-12-23T00:13:17.788Z,5.48
2017-12-23T00:13:22.144Z,5.48
2017-12-23T00:13:26.484Z,5.48
2017-12-23T00:13:30.736Z,5.49
2017-12-23T00:13:34.961Z,5.49
2017-12-23T00:13:39.195Z,5.49
2017-12-23T00:13:43.108Z,5.49
2017-12-23T00:13:47.336Z,5.49
2017-12-23T00:13:51.154Z,5.49
2017-12-23T00:13:55.280Z,5.49
2017-12-23T00:13:59.412Z,5.49
2017-12-23T00:14:03.632Z,5.49
2017-12-23T00:14:07.872Z,5.49
2017-12-23T00:14:11.994Z,5.5
2017-12-23T00:14:16.116Z,5.5
2017-12-23T00:14:20.242Z,5.49
2017-12-23T00:14:24.261Z,5.49
2017-12-23T00:14:28.275Z,5.5
2017-12-23T00:14:32.495Z,5.5
2017-12-23T00:14:36.627Z,5.51
2017-12-23T00:14:40.750Z,5.49
2017-12-23T00:14:44.883Z,5.49
2017-12-23T00:14:49.103Z,5.5
2017-12-23T00:14:53.234Z,5.5
2017-12-23T00:14:57.473Z,5.51
2017-12-23T00:15:01.396Z,5.52
2017-12-23T00:15:05.663Z,5.5
2017-12-23T00:15:09.885Z,5.5
2017-12-23T00:15:13.919Z,5.51
2017-12-23T00:15:18.152Z,5.5
2017-12-23T00:15:22.489Z,5.5
2017-12-23T00:15:26.719Z,5.51
2017-12-23T00:15:31.069Z,5.51
2017-12-23T00:15:35.181Z,5.51
2017-12-23T00:15:39.311Z,5.51
2017-12-23T00:15:43.549Z,5.51
2017-12-23T00:15:47.658Z,5.51
2017-12-23T00:15:51.678Z,5.51
2017-12-23T00:15:55.926Z,5.51
2017-12-23T00:15:59.950Z,5.51
2017-12-23T00:16:03.983Z,5.51
2017-12-23T00:16:08.115Z,5.51
2017-12-23T00:16:12.126Z,5.52
2017-12-23T00:16:16.347Z,5.52
2017-12-23T00:16:20.712Z,5.51
2017-12-23T00:16:24.845Z,5.51
2017-12-23T00:16:59.314Z,5.52
2017-12-23T00:17:03.436Z,5.52
2017-12-23T00:17:07.566Z,5.53
2017-12-23T00:17:11.693Z,5.53
2017-12-23T00:17:15.716Z,5.53
2017-12-23T00:17:19.886Z,5.53
2017-12-23T00:17:24.097Z,5.53
2017-12-23T00:17:28.227Z,5.53
2017-12-23T00:17:32.526Z,5.53
2017-12-23T00:17:37.088Z,5.53
2017-12-23T00:17:41.333Z,5.53
2017-12-23T00:17:45.564Z,5.54
2017-12-23T00:17:49.922Z,5.54
2017-12-23T00:17:53.961Z,5.54
2017-12-23T00:17:58.096Z,5.54
2017-12-23T00:18:02.105Z,5.54
2017-12-23T00:18:06.026Z,5.53
2017-12-23T00:18:10.352Z,5.54
2017-12-23T00:18:14.468Z,5.54
2017-12-23T00:18:18.593Z,5.54
2017-12-23T00:18:22.714Z,5.54
2017-12-23T00:18:26.949Z,5.53
2017-12-23T00:18:31.065Z,5.54
2017-12-23T00:18:35.088Z,5.54
2017-12-23T00:18:39.242Z,5.54
2017-12-23T00:18:43.265Z,5.55
2017-12-23T00:18:47.380Z,5.54
2017-12-23T00:18:51.401Z,5.55
2017-12-23T00:18:55.315Z,5.55
2017-12-23T00:18:59.339Z,5.55
2017-12-23T00:19:03.567Z,5.55
2017-12-23T00:19:07.707Z,5.55
2017-12-23T00:19:11.946Z,5.55
2017-12-23T00:19:15.965Z,5.55
2017-12-23T00:19:20.204Z,5.55
2017-12-23T00:19:24.328Z,5.55
2017-12-23T00:19:28.447Z,5.55
2017-12-23T00:19:32.674Z,5.55
2017-12-23T00:19:36.901Z,5.55
2017-12-23T00:19:41.246Z,5.56
2017-12-23T00:19:45.477Z,5.55
2017-12-23T00:19:49.704Z,5.55
2017-12-23T00:19:53.934Z,5.56
2017-12-23T00:19:57.852Z,5.55
2017-12-23T00:20:01.811Z,5.55
2017-12-23T00:20:06.072Z,5.56
2017-12-23T00:20:09.988Z,5.56
2017-12-23T00:20:14.129Z,5.56
2017-12-23T00:20:18.471Z,5.56
2017-12-23T00:20:22.619Z,5.57
2017-12-23T00:20:26.755Z,5.56
2017-12-23T00:20:30.877Z,5.55
2017-12-23T00:20:35.124Z,5.56
2017-12-23T00:20:39.239Z,5.56
2017-12-23T00:20:43.572Z,5.57
2017-12-23T00:20:47.581Z,5.58
2017-12-23T00:20:51.912Z,5.57
2017-12-23T00:20:56.269Z,5.57
2017-12-23T00:21:00.399Z,5.57
2017-12-23T00:21:04.992Z,5.56
2017-12-23T00:21:09.239Z,5.57
2017-12-23T00:21:13.497Z,5.58
2017-12-23T00:21:17.635Z,5.57
2017-12-23T00:21:21.748Z,5.57
2017-12-23T00:21:25.984Z,5.58
2017-12-23T00:21:30.223Z,5.58
2017-12-23T00:21:34.341Z,5.58
2017-12-23T00:21:38.367Z,5.58
2017-12-23T00:21:42.393Z,5.58
2017-12-23T00:21:46.426Z,5.59
2017-12-23T00:21:50.533Z,5.59
2017-12-23T00:21:54.562Z,5.59
2017-12-23T00:21:58.895Z,5.58
2017-12-23T00:22:03.220Z,5.58
2017-12-23T00:22:07.451Z,5.59
2017-12-23T00:22:11.467Z,5.58
2017-12-23T00:22:15.491Z,5.59
2017-12-23T00:22:19.721Z,5.59
2017-12-23T00:22:23.637Z,5.58
2017-12-23T00:22:27.766Z,5.58
2017-12-23T00:22:31.784Z,5.59
2017-12-23T00:22:35.794Z,5.6
2017-12-23T00:22:39.901Z,5.59
2017-12-23T00:22:44.030Z,5.59
2017-12-23T00:22:48.354Z,5.59
2017-12-23T00:22:52.481Z,5.6
2017-12-23T00:22:56.716Z,5.6
2017-12-23T00:23:00.828Z,5.6
2017-12-23T00:23:05.136Z,5.6
2017-12-23T00:23:09.252Z,5.6
2017-12-23T00:23:13.498Z,5.6
2017-12-23T00:23:17.723Z,5.59
2017-12-23T00:23:21.850Z,5.6
2017-12-23T00:23:26.082Z,5.6
2017-12-23T00:23:30.203Z,5.6
2017-12-23T00:23:34.229Z,5.6
2017-12-23T00:23:38.473Z,5.6
2017-12-23T00:23:42.702Z,5.61
2017-12-23T00:23:46.839Z,5.6
2017-12-23T00:23:50.852Z,5.61
2017-12-23T00:23:54.990Z,5.61
2017-12-23T00:23:59.005Z,5.6
2017-12-23T00:24:03.177Z,5.6
2017-12-23T00:24:07.247Z,5.62
2017-12-23T00:24:11.367Z,5.61
2017-12-23T00:24:15.511Z,5.62
2017-12-23T00:24:19.641Z,5.62
2017-12-23T00:24:23.772Z,5.61
2017-12-23T00:24:28.023Z,5.6
2017-12-23T00:24:32.142Z,5.61
2017-12-23T00:24:36.335Z,5.61
2017-12-23T00:24:40.346Z,5.61
2017-12-23T00:24:44.680Z,5.61
2017-12-23T00:24:48.915Z,5.62
2017-12-23T00:24:52.835Z,5.62
2017-12-23T00:24:56.739Z,5.62
2017-12-23T00:25:00.971Z,5.62
2017-12-23T00:25:04.868Z,5.62
2017-12-23T00:25:08.784Z,5.62
2017-12-23T00:25:13.026Z,5.62
2017-12-23T00:25:17.150Z,5.63
2017-12-23T00:25:21.491Z,5.62
2017-12-23T00:25:25.728Z,5.62
2017-12-23T00:25:29.859Z,5.62
2017-12-23T00:25:33.838Z,5.63
2017-12-23T00:25:37.864Z,5.62
2017-12-23T00:25:41.869Z,5.62
2017-12-23T00:25:46.012Z,5.63
2017-12-23T00:25:50.240Z,5.63
2017-12-23T00:25:54.458Z,5.63
2017-12-23T00:25:58.695Z,5.63
2017-12-23T00:26:02.720Z,5.63
2017-12-23T00:26:06.730Z,5.63
2017-12-23T00:26:10.946Z,5.63
2017-12-23T00:26:15.192Z,5.63
2017-12-23T00:26:19.215Z,5.63
2017-12-23T00:26:23.239Z,5.63
2017-12-23T00:26:27.374Z,5.63
2017-12-23T00:26:31.517Z,5.63
2017-12-23T00:26:35.654Z,5.64
2017-12-23T00:26:39.773Z,5.64
2017-12-23T00:26:43.989Z,5.64
2017-12-23T00:26:47.799Z,5.63
2017-12-23T00:26:51.931Z,5.64
2017-12-23T00:26:56.165Z,5.64
2017-12-23T00:27:00.276Z,5.62
2017-12-23T00:27:04.610Z,5.64
2017-12-23T00:27:08.618Z,5.64
2017-12-23T00:27:12.742Z,5.64
2017-12-23T00:27:16.765Z,5.63
2017-12-23T00:27:20.777Z,5.63
2017-12-23T00:27:24.787Z,5.63
2017-12-23T00:27:28.810Z,5.64
2017-12-23T00:27:33.033Z,5.64
2017-12-23T00:27:37.281Z,5.64
2017-12-23T00:27:41.303Z,5.64
2017-12-23T00:27:45.546Z,5.64
2017-12-23T00:27:49.680Z,5.64
2017-12-23T00:27:53.705Z,5.64
2017-12-23T00:27:57.987Z,5.64
2017-12-23T00:28:02.423Z,5.65
2017-12-23T00:28:06.248Z,5.65
2017-12-23T00:28:10.159Z,5.64
2017-12-23T00:28:14.272Z,5.65
2017-12-23T00:28:18.512Z,5.65
2017-12-23T00:28:22.430Z,5.64
2017-12-23T00:28:26.550Z,5.65
2017-12-23T00:28:30.688Z,5.65
2017-12-23T00:28:34.721Z,5.65
2017-12-23T00:28:38.885Z,5.65
2017-12-23T00:28:42.863Z,5.65
2017-12-23T00:28:46.875Z,5.65
2017-12-23T00:28:50.790Z,5.65
2017-12-23T00:28:55.117Z,5.65
2017-12-23T00:28:59.353Z,5.65
2017-12-23T00:29:03.476Z,5.66
2017-12-23T00:29:07.507Z,5.65
2017-12-23T00:29:11.745Z,5.67
2017-12-23T00:29:15.769Z,5.66
2017-12-23T00:29:19.773Z,5.65
2017-12-23T00:29:23.793Z,5.67
2017-12-23T00:29:27.916Z,5.67
2017-12-23T00:29:32.155Z,5.67
2017-12-23T00:29:36.392Z,5.66
2017-12-23T00:29:40.406Z,5.67
2017-12-23T00:29:44.530Z,5.67
2017-12-23T00:29:48.880Z,5.67
2017-12-23T00:29:53.106Z,5.67
2017-12-23T00:29:57.223Z,5.68
2017-12-23T00:30:01.125Z,5.68
2017-12-23T00:30:05.050Z,5.67
2017-12-23T00:30:09.389Z,5.67
2017-12-23T00:30:13.507Z,5.68
2017-12-23T00:30:17.745Z,5.68
2017-12-23T00:30:21.959Z,5.68
2017-12-23T00:30:26.177Z,5.69
2017-12-23T00:30:30.413Z,5.68
2017-12-23T00:30:34.651Z,5.69
2017-12-23T00:30:38.880Z,5.68
2017-12-23T00:30:43.017Z,5.69
2017-12-23T00:30:47.139Z,5.68
2017-12-23T00:30:51.289Z,5.69
2017-12-23T00:30:55.531Z,5.68
2017-12-23T00:30:59.429Z,5.68
2017-12-23T00:31:03.703Z,5.69
2017-12-23T00:31:07.709Z,5.69
2017-12-23T00:31:11.948Z,5.7
2017-12-23T00:31:16.086Z,5.7
2017-12-23T00:31:20.206Z,5.7
2017-12-23T00:31:24.555Z,5.7
2017-12-23T00:31:28.790Z,5.7
2017-12-23T00:31:33.031Z,5.7
2017-12-23T00:31:37.180Z,5.69
2017-12-23T00:31:41.301Z,5.7
2017-12-23T00:31:45.415Z,5.7
2017-12-23T00:31:49.747Z,5.7
2017-12-23T00:31:53.546Z,5.7
2017-12-23T00:31:57.669Z,5.71
2017-12-23T00:32:01.942Z,5.71
2017-12-23T00:32:06.065Z,5.71
2017-12-23T00:32:10.094Z,5.71
2017-12-23T00:32:14.009Z,5.71
2017-12-23T00:32:18.032Z,5.71
2017-12-23T00:32:21.846Z,5.71
2017-12-23T00:32:25.864Z,5.71
2017-12-23T00:32:29.874Z,5.71
2017-12-23T00:32:34.007Z,5.72
2017-12-23T00:32:38.021Z,5.72
2017-12-23T00:32:42.254Z,5.71
2017-12-23T00:32:46.162Z,5.72
2017-12-23T00:32:50.393Z,5.71
2017-12-23T00:32:54.644Z,5.71
2017-12-23T00:32:58.763Z,5.72
2017-12-23T00:33:02.893Z,5.72
2017-12-23T00:33:07.149Z,5.72
2017-12-23T00:33:11.181Z,5.72
2017-12-23T00:33:15.313Z,5.72
2017-12-23T00:33:19.549Z,5.72
2017-12-23T00:33:23.703Z,5.72
2017-12-23T00:33:27.943Z,5.72
2017-12-23T00:33:32.183Z,5.72
2017-12-23T00:33:36.307Z,5.72
2017-12-23T00:33:40.321Z,5.71
2017-12-23T00:33:44.360Z,5.72
2017-12-23T00:33:48.274Z,5.72
2017-12-23T00:33:52.407Z,5.72
2017-12-23T00:33:56.521Z,5.72
2017-12-23T00:34:00.541Z,5.72
2017-12-23T00:34:04.778Z,5.71
2017-12-23T00:34:08.900Z,5.72
2017-12-23T00:34:12.920Z,5.72
2017-12-23T00:34:17.278Z,5.72
2017-12-23T00:34:21.513Z,5.72
2017-12-23T00:34:25.519Z,5.72
2017-12-23T00:34:29.745Z,5.72
2017-12-23T00:34:33.878Z,5.73
2017-12-23T00:34:37.999Z,5.72
2017-12-23T00:34:42.216Z,5.72
2017-12-23T00:34:46.131Z,5.72
2017-12-23T00:34:50.251Z,5.72
2017-12-23T00:34:54.260Z,5.72
2017-12-23T00:34:58.177Z,5.72
2017-12-23T00:35:02.485Z,5.73
2017-12-23T00:35:06.712Z,5.71
2017-12-23T00:35:10.626Z,5.72
2017-12-23T00:35:14.853Z,5.72
2017-12-23T00:35:19.086Z,5.73
2017-12-23T00:35:23.102Z,5.72
2017-12-23T00:35:27.254Z,5.72
2017-12-23T00:35:31.487Z,5.72
2017-12-23T00:35:35.724Z,5.72
2017-12-23T00:35:39.860Z,5.73
2017-12-23T00:35:43.976Z,5.73
2017-12-23T00:35:47.999Z,5.73
2017-12-23T00:35:52.125Z,5.72
2017-12-23T00:35:56.256Z,5.72
2017-12-23T00:36:00.379Z,5.72
2017-12-23T00:36:04.754Z,5.73
2017-12-23T00:36:08.773Z,5.72
2017-12-23T00:36:13.109Z,5.72
2017-12-23T00:36:17.450Z,5.73
2017-12-23T00:36:21.821Z,5.72
2017-12-23T00:36:26.048Z,5.72
2017-12-23T00:36:30.301Z,5.73
2017-12-23T00:36:34.422Z,5.72
2017-12-23T00:36:38.663Z,5.71
2017-12-23T00:36:42.784Z,5.73
2017-12-23T00:36:47.033Z,5.71
2017-12-23T00:36:51.370Z,5.72
2017-12-23T00:36:55.378Z,5.72
2017-12-23T00:36:59.499Z,5.72
2017-12-23T00:37:03.868Z,5.73
2017-12-23T00:37:07.989Z,5.72
2017-12-23T00:37:12.019Z,5.72
2017-12-23T00:37:16.141Z,5.72
2017-12-23T00:37:20.283Z,5.72
2017-12-23T00:37:24.415Z,5.72
2017-12-23T00:37:28.444Z,5.71
2017-12-23T00:37:32.476Z,5.72
2017-12-23T00:37:36.389Z,5.72
2017-12-23T00:37:40.537Z,5.72
2017-12-23T00:37:44.769Z,5.73
2017-12-23T00:37:48.700Z,5.72
2017-12-23T00:37:52.812Z,5.72
2017-12-23T00:37:56.936Z,5.73
2017-12-23T00:38:01.166Z,5.73
2017-12-23T00:38:05.560Z,5.73
2017-12-23T00:38:09.352Z,5.73
2017-12-23T00:38:13.373Z,5.72
2017-12-23T00:38:17.503Z,5.71
2017-12-23T00:38:21.626Z,5.72
2017-12-23T00:38:25.642Z,5.73
2017-12-23T00:38:29.653Z,5.72
2017-12-23T00:38:33.718Z,5.73
2017-12-23T00:38:37.943Z,5.73
2017-12-23T00:38:42.065Z,5.72
2017-12-23T00:38:46.194Z,5.73
2017-12-23T00:38:50.436Z,5.72
2017-12-23T00:38:54.565Z,5.73
2017-12-23T00:38:58.565Z,5.73
2017-12-23T00:39:02.900Z,5.73
2017-12-23T00:39:06.941Z,5.72
2017-12-23T00:39:11.075Z,5.73
2017-12-23T00:39:14.993Z,5.73
2017-12-23T00:39:19.121Z,5.73
2017-12-23T00:39:23.266Z,5.73
2017-12-23T00:39:27.511Z,5.73
2017-12-23T00:39:31.635Z,5.73
2017-12-23T00:39:35.558Z,5.72
2017-12-23T00:39:39.801Z,5.73
2017-12-23T00:39:44.063Z,5.72
2017-12-23T00:39:47.974Z,5.73
2017-12-23T00:39:51.989Z,5.73
2017-12-23T00:39:56.028Z,5.73
2017-12-23T00:40:00.385Z,5.73
2017-12-23T00:40:04.828Z,5.73
2017-12-23T00:40:08.839Z,5.73
2017-12-23T00:40:12.780Z,5.73
2017-12-23T00:40:16.804Z,5.73
2017-12-23T00:40:21.028Z,5.74
2017-12-23T00:40:25.192Z,5.73
2017-12-23T00:40:29.417Z,5.73
2017-12-23T00:40:33.633Z,5.74
2017-12-23T00:40:37.859Z,5.73
2017-12-23T00:40:41.775Z,5.74
2017-12-23T00:40:46.000Z,5.75
2017-12-23T00:40:50.347Z,5.73
2017-12-23T00:40:54.467Z,5.73
2017-12-23T00:40:58.787Z,5.73
2017-12-23T00:41:02.911Z,5.73
2017-12-23T00:41:06.932Z,5.73
2017-12-23T00:41:11.266Z,5.74
2017-12-23T00:41:15.176Z,5.73
2017-12-23T00:41:19.219Z,5.74
2017-12-23T00:41:23.363Z,5.74
2017-12-23T00:41:27.374Z,5.74
2017-12-23T00:41:31.725Z,5.74
2017-12-23T00:41:35.745Z,5.74
2017-12-23T00:41:39.654Z,5.73
2017-12-23T00:41:44.016Z,5.74
2017-12-23T00:41:47.936Z,5.74
2017-12-23T00:41:51.951Z,5.74
2017-12-23T00:41:55.738Z,5.74
2017-12-23T00:41:59.855Z,5.74
2017-12-23T00:42:03.925Z,5.73
2017-12-23T00:42:07.734Z,5.74
2017-12-23T00:42:11.874Z,5.74
2017-12-23T00:42:15.675Z,5.75
2017-12-23T00:42:19.894Z,5.74
2017-12-23T00:42:24.128Z,5.75
2017-12-23T00:42:28.358Z,5.75
2017-12-23T00:42:32.376Z,5.75
2017-12-23T00:42:36.611Z,5.74
2017-12-23T00:42:40.833Z,5.75
2017-12-23T00:42:44.748Z,5.75
2017-12-23T00:42:49.094Z,5.74
2017-12-23T00:42:53.139Z,5.74
2017-12-23T00:42:57.367Z,5.75
2017-12-23T00:43:01.283Z,5.75
2017-12-23T00:43:05.394Z,5.76
2017-12-23T00:43:09.608Z,5.75
2017-12-23T00:43:13.520Z,5.75
2017-12-23T00:43:17.629Z,5.75
2017-12-23T00:43:21.640Z,5.76
2017-12-23T00:43:25.650Z,5.75
2017-12-23T00:43:29.777Z,5.75
2017-12-23T00:43:34.123Z,5.76
2017-12-23T00:43:38.245Z,5.76
2017-12-23T00:43:42.167Z,5.76
2017-12-23T00:43:46.180Z,5.76
2017-12-23T00:43:50.300Z,5.76
2017-12-23T00:43:54.427Z,5.75
2017-12-23T00:43:58.442Z,5.76
2017-12-23T00:44:02.479Z,5.76
2017-12-23T00:44:06.817Z,5.77
2017-12-23T00:44:10.837Z,5.77
2017-12-23T00:44:14.755Z,5.77
2017-12-23T00:44:18.894Z,5.76
2017-12-23T00:44:23.261Z,5.77
2017-12-23T00:44:27.276Z,5.77
2017-12-23T00:44:31.624Z,5.77
2017-12-23T00:44:35.763Z,5.77
2017-12-23T00:44:39.774Z,5.77
2017-12-23T00:44:43.796Z,5.77
2017-12-23T00:44:47.915Z,5.77
2017-12-23T00:44:52.049Z,5.77
2017-12-23T00:44:56.300Z,5.78
2017-12-23T00:45:00.437Z,5.77
2017-12-23T00:45:04.678Z,5.77
2017-12-23T00:45:09.018Z,5.78
2017-12-23T00:45:13.360Z,5.78
2017-12-23T00:45:17.387Z,5.78
2017-12-23T00:45:21.399Z,5.77
2017-12-23T00:45:25.625Z,5.78
2017-12-23T00:45:29.758Z,5.78
2017-12-23T00:45:33.881Z,5.78
2017-12-23T00:45:38.122Z,5.77
2017-12-23T00:45:42.470Z,5.77
2017-12-23T00:45:46.483Z,5.78
2017-12-23T00:45:50.397Z,5.78
2017-12-23T00:45:54.725Z,5.79
2017-12-23T00:45:58.944Z,5.78
2017-12-23T00:46:02.968Z,5.79
2017-12-23T00:46:07.082Z,5.79
2017-12-23T00:46:11.464Z,5.79
2017-12-23T00:46:15.480Z,5.79
2017-12-23T00:46:19.734Z,5.78
2017-12-23T00:46:23.877Z,5.79
2017-12-23T00:46:27.888Z,5.79
2017-12-23T00:46:32.149Z,5.79
2017-12-23T00:46:36.167Z,5.79
2017-12-23T00:46:40.408Z,5.79
2017-12-23T00:46:44.767Z,5.79
2017-12-23T00:46:48.910Z,5.8
2017-12-23T00:46:53.157Z,5.8
2017-12-23T00:46:57.399Z,5.79
2017-12-23T00:47:01.522Z,5.79
2017-12-23T00:47:05.531Z,5.79
2017-12-23T00:47:09.878Z,5.8
2017-12-23T00:47:14.097Z,5.8
2017-12-23T00:47:18.210Z,5.8
2017-12-23T00:47:22.218Z,5.79
2017-12-23T00:47:26.239Z,5.8
2017-12-23T00:47:30.267Z,5.79
2017-12-23T00:47:34.500Z,5.79
2017-12-23T00:47:38.735Z,5.8
2017-12-23T00:47:42.961Z,5.79
2017-12-23T00:47:46.877Z,5.79
2017-12-23T00:47:50.971Z,5.8
2017-12-23T00:47:55.211Z,5.8
2017-12-23T00:47:59.437Z,5.81
2017-12-23T00:48:03.568Z,5.81
2017-12-23T00:48:07.846Z,5.8
2017-12-23T00:48:11.649Z,5.8
2017-12-23T00:48:15.550Z,5.8
2017-12-23T00:48:19.776Z,5.79
2017-12-23T00:48:23.684Z,5.81
2017-12-23T00:48:27.932Z,5.8
2017-12-23T00:48:31.836Z,5.8
2017-12-23T00:48:35.868Z,5.81
2017-12-23T00:48:40.102Z,5.8
2017-12-23T00:48:44.234Z,5.8
2017-12-23T00:48:48.273Z,5.8
2017-12-23T00:48:52.510Z,5.8
2017-12-23T00:48:56.429Z,5.81
2017-12-23T00:49:00.600Z,5.81
2017-12-23T00:49:04.819Z,5.8
2017-12-23T00:49:08.841Z,5.8
2017-12-23T00:49:12.974Z,5.8
2017-12-23T00:49:17.220Z,5.8
2017-12-23T00:49:21.473Z,5.8
2017-12-23T00:49:25.804Z,5.81
2017-12-23T00:49:29.992Z,5.81
2017-12-23T00:49:34.010Z,5.8
2017-12-23T00:49:38.038Z,5.81
2017-12-23T00:49:42.264Z,5.8
2017-12-23T00:49:46.369Z,5.8
2017-12-23T00:49:50.713Z,5.81
2017-12-23T00:49:54.846Z,5.81
2017-12-23T00:49:58.865Z,5.81
2017-12-23T00:50:02.993Z,5.81
2017-12-23T00:50:07.244Z,5.81
2017-12-23T00:50:11.567Z,5.81
2017-12-23T00:50:15.789Z,5.81
2017-12-23T00:50:19.926Z,5.82
2017-12-23T00:50:24.156Z,5.81
2017-12-23T00:50:28.275Z,5.81
2017-12-23T00:50:32.399Z,5.82
2017-12-23T00:50:36.648Z,5.81
2017-12-23T00:50:40.773Z,5.81
2017-12-23T00:50:44.670Z,5.81
2017-12-23T00:50:49.002Z,5.82
2017-12-23T00:50:53.242Z,5.81
2017-12-23T00:50:57.161Z,5.82
2017-12-23T00:51:01.481Z,5.82
2017-12-23T00:51:05.808Z,5.82
2017-12-23T00:51:09.506Z,5.82
2017-12-23T00:51:13.743Z,5.82
2017-12-23T00:51:17.876Z,5.82
2017-12-23T00:51:22.024Z,5.81
2017-12-23T00:51:26.048Z,5.82
2017-12-23T00:51:30.419Z,5.81
2017-12-23T00:51:34.763Z,5.82
2017-12-23T00:51:38.897Z,5.81
2017-12-23T00:51:43.125Z,5.82
2017-12-23T00:51:47.260Z,5.82
2017-12-23T00:51:51.595Z,5.82
2017-12-23T00:51:55.718Z,5.81
2017-12-23T00:51:59.941Z,5.83
2017-12-23T00:52:04.073Z,5.83
2017-12-23T00:52:08.208Z,5.82
2017-12-23T00:52:12.235Z,5.82
2017-12-23T00:52:16.267Z,5.83
2017-12-23T00:52:20.286Z,5.82
2017-12-23T00:52:24.200Z,5.82
2017-12-23T00:52:28.323Z,5.82
2017-12-23T00:52:32.232Z,5.83
2017-12-23T00:52:36.251Z,5.83
2017-12-23T00:52:40.489Z,5.83
2017-12-23T00:52:44.595Z,5.83
2017-12-23T00:52:48.954Z,5.83
2017-12-23T00:52:53.074Z,5.84
2017-12-23T00:52:57.400Z,5.83
2017-12-23T00:53:01.540Z,5.83
2017-12-23T00:53:05.673Z,5.83
2017-12-23T00:53:09.904Z,5.82
2017-12-23T00:53:14.136Z,5.83
2017-12-23T00:53:18.037Z,5.84
2017-12-23T00:53:22.047Z,5.84
2017-12-23T00:53:26.297Z,5.83
2017-12-23T00:53:30.318Z,5.84
2017-12-23T00:53:34.354Z,5.83
2017-12-23T00:53:38.378Z,5.84
2017-12-23T00:53:42.411Z,5.84
2017-12-23T00:53:46.541Z,5.84
2017-12-23T00:53:50.793Z,5.83
2017-12-23T00:53:54.818Z,5.83
2017-12-23T00:53:58.850Z,5.83
2017-12-23T00:54:03.185Z,5.85
2017-12-23T00:54:07.413Z,5.84
2017-12-23T00:54:11.537Z,5.84
2017-12-23T00:54:15.664Z,5.84
2017-12-23T00:54:19.671Z,5.84
2017-12-23T00:54:24.012Z,5.84
2017-12-23T00:54:27.921Z,5.85
2017-12-23T00:54:31.958Z,5.84
2017-12-23T00:54:36.193Z,5.84
2017-12-23T00:54:40.549Z,5.84
2017-12-23T00:54:44.773Z,5.84
2017-12-23T00:54:48.893Z,5.84
2017-12-23T00:54:53.006Z,5.84
2017-12-23T00:54:56.805Z,5.84
2017-12-23T00:55:00.817Z,5.84
2017-12-23T00:55:04.843Z,5.84
2017-12-23T00:55:08.969Z,5.84
2017-12-23T00:55:13.089Z,5.84
2017-12-23T00:55:17.199Z,5.84
2017-12-23T00:55:21.530Z,5.84
2017-12-23T00:55:25.691Z,5.84
2017-12-23T00:55:29.912Z,5.84
2017-12-23T00:55:34.032Z,5.84
2017-12-23T00:55:37.957Z,5.84
2017-12-23T00:55:41.986Z,5.84
2017-12-23T00:55:46.228Z,5.84